Airfield :
LOGIN :

Register | Disclaimer

   EN    FR    IT 

 










Legend :    VFR   Marginal VFR   IFR   Intensive IFR   Very Intensive IFR
Visi :
Ceiling :
>= 8 km
>= 3000ft
5 to 8 km
1000 to 3000 ft
1500m to 5 km
500 to 1000 ft
800 to 1500m
200 to 500 ft
< 800m
< 200 ft
Symbols :   Thunderstorms  Fog  Heavy snow  Heavy precipitations  Wind > 20 kt
SIGMETs :     Misc.  Thunderstorms  Icing  Turbulence  Mountain Waves  Volcanic Ashes







- Airport Elevation : 161 ft
- IATA code : PMF


LIMP - Parma

CURRENT METAR :
  • 121650Z VRB01KT 3000 BR SCT040 02/02 Q1012

EXPIRED METARs :
  • 121550Z VRB02KT 3000 BR SCT040 03/03 Q1011
  • 121450Z VRB02KT 4000 BR FEW040 04/03 Q1011

TAF TAF LIMP
Valid from the 12 at 18:00 until the 13 at 18:00 UTC


121700Z 1218/1318 VRB05KT 1500 BR NSC
TEMPO 1222/1308 0400 FZFG BKN005
BECMG 1307/1310 4000
No reported NOTAMs for that airfield.
3 SIGMETs reported for the Milano FIR (LIMM) :
 
Severe turbulence
LIMM SIGMET 14 VALID 121815/121915 LIIP
LIMM MILANO FIR SEV TURB FCST N OF LINE N4407 E00658 - N4625 E00955 FL240/380 MOV E WKN=
Severe icing
LIMM SIGMET 13 VALID 121705/121905 LIIP
LIMM MILANO FIR SEV ICE OBS WI N4614 E01329 - N4546 E01103 - N4433 E01110 - N4437 E01313 - N4509 E01306 - N4536 E01331 - N4536 E01353 - N4614 E01329 FL180/280 STNR NC=
Severe turbulence
LIMM SIGMET 12 VALID 121415/121815 LIIP
LIMM MILANO FIR SEV TURB FCST N OF LINE N4407 E00658 - N4625 E00955 FL240/380 MOV E WKN=



MET'MAP, your aeronautical weather chart ! - Copyright ORBIFLY December 2007 - Disclaimer

ORBIFLY MET'MAP TEAM :

Programming & Development : Alexandra Zaïnal
Concept & Development : Baudouin d'Aumeries
Co-Development & Prog : Marc-Olivier Méhu
Technical & hardware support : Manuel Goepfert

Contact : metmap@orbifly.com




SOURCES & CREDITS :

   NOAA